Time;durP1;ratioP1;P1;durP2;ratioP2;P2;SDS_P1;SDS_P2;PMS_P1;PMS_P2;Temp;Humidity;BMP_temperature;BMP_pressure;BME280_temperature;BME280_humidity;BME280_pressure;Samples;Min_cycle;Max_cycle;Signal;HPM_P1;HPM_P2
2022/03/04 00:00:05;;;;;;;76.28;36.85;;;;;;;-1.31;69.98;100576.31;2059469;84;21061;-80
2022/03/04 00:03:11;;;;;;;85.17;38.92;;;;;;;-1.33;70.04;100576.84;2033150;84;21097;-80
2022/03/04 00:06:15;;;;;;;84.13;40.83;;;;;;;-1.34;70.22;100586.89;2057840;84;21053;-80
2022/03/04 00:09:20;;;;;;;90.07;43.98;;;;;;;-1.31;70.31;100576.31;2032694;84;21115;-80
2022/03/04 00:12:22;;;;;;;85.70;41.30;;;;;;;-1.34;70.28;100576.02;2028640;84;21575;-80
2022/03/04 00:15:29;;;;;;;92.15;44.35;;;;;;;-1.30;70.38;100570.17;2076147;84;21060;-79
2022/03/04 00:18:34;;;;;;;92.20;43.92;;;;;;;-1.25;70.52;100573.39;2057046;84;21787;-79
2022/03/04 00:21:41;;;;;;;89.05;42.88;;;;;;;-1.22;70.55;100571.45;2053752;84;21020;-80
2022/03/04 00:24:47;;;;;;;80.90;40.08;;;;;;;-1.17;70.57;100572.06;2034784;84;21076;-79
2022/03/04 00:27:51;;;;;;;87.27;43.02;;;;;;;-1.15;70.54;100565.02;2053064;84;21385;-79
2022/03/04 00:30:55;;;;;;;86.72;42.33;;;;;;;-1.17;70.61;100566.85;2077395;84;21047;-80
2022/03/04 00:34:01;;;;;;;84.32;39.88;;;;;;;-1.20;70.67;100574.83;2043348;84;21604;-79
2022/03/04 00:37:06;;;;;;;87.95;39.75;;;;;;;-1.20;70.69;100569.63;2052338;83;21064;-79
2022/03/04 00:40:14;;;;;;;80.90;39.35;;;;;;;-1.21;70.71;100565.78;2072283;84;21128;-80
2022/03/04 00:43:19;;;;;;;84.07;41.13;;;;;;;-1.18;70.72;100569.55;2070905;84;21080;-80
2022/03/04 00:46:20;;;;;;;79.37;37.58;;;;;;;-1.17;70.84;100560.81;2049409;83;21538;-80
2022/03/04 00:49:26;;;;;;;85.32;41.58;;;;;;;-1.16;70.96;100567.69;2038005;84;21103;-80
2022/03/04 00:52:31;;;;;;;80.30;40.17;;;;;;;-1.17;71.03;100565.55;2071600;84;21461;-80
2022/03/04 00:55:40;;;;;;;86.53;42.33;;;;;;;-1.10;71.13;100558.70;2074934;83;21058;-80
2022/03/04 00:58:43;;;;;;;88.03;41.23;;;;;;;-1.10;71.11;100563.45;2072355;84;21638;-80
2022/03/04 01:01:46;;;;;;;83.87;39.50;;;;;;;-1.09;71.23;100560.41;2060361;82;22046;-80
2022/03/04 01:04:51;;;;;;;91.90;43.25;;;;;;;-1.08;71.25;100557.70;2082532;84;21072;-80
2022/03/04 01:07:55;;;;;;;80.65;39.42;;;;;;;-1.09;71.22;100564.31;2083954;82;21063;-79
2022/03/04 01:10:58;;;;;;;89.25;41.33;;;;;;;-1.09;71.24;100556.03;2081831;84;21084;-79
2022/03/04 01:14:05;;;;;;;88.20;40.63;;;;;;;-1.06;71.28;100562.37;2062801;83;21017;-79
2022/03/04 01:17:13;;;;;;;94.47;42.20;;;;;;;-1.03;71.33;100557.00;2073696;83;21068;-80
2022/03/04 01:20:18;;;;;;;85.65;41.15;;;;;;;-1.03;71.42;100558.31;2105429;83;22443;-79
2022/03/04 01:23:25;;;;;;;81.05;38.20;;;;;;;-0.98;71.49;100562.81;2108357;83;21033;-80
2022/03/04 01:26:29;;;;;;;85.83;40.30;;;;;;;-0.96;71.53;100563.59;2097953;83;21056;-79
2022/03/04 01:29:34;;;;;;;83.52;38.38;;;;;;;-0.94;71.55;100559.58;2058736;84;21600;-79
2022/03/04 01:32:37;;;;;;;85.07;39.27;;;;;;;-0.88;71.59;100557.10;2054946;84;21080;-80
2022/03/04 01:35:45;;;;;;;82.72;39.00;;;;;;;-0.85;71.58;100552.56;2040372;84;21144;-80
2022/03/04 01:38:47;;;;;;;81.47;39.45;;;;;;;-0.84;71.56;100550.82;2056020;84;21009;-80
2022/03/04 01:41:53;;;;;;;78.07;36.70;;;;;;;-0.86;71.61;100557.87;2056552;84;21683;-79
2022/03/04 01:44:58;;;;;;;74.85;36.63;;;;;;;-0.85;71.67;100555.63;2067276;84;21060;-80
2022/03/04 01:48:02;;;;;;;73.00;35.80;;;;;;;-0.87;71.69;100554.86;2054366;84;21096;-79
2022/03/04 01:51:10;;;;;;;70.22;35.05;;;;;;;-0.91;71.77;100548.52;2080863;84;21139;-79
2022/03/04 01:54:16;;;;;;;73.75;34.38;;;;;;;-0.89;71.80;100550.22;2080902;84;21571;-79
2022/03/04 01:57:20;;;;;;;73.00;34.75;;;;;;;-0.86;71.98;100553.96;2081867;84;21033;-80
2022/03/04 02:00:22;;;;;;;70.05;33.30;;;;;;;-0.87;71.95;100554.86;2055993;84;21588;-79
2022/03/04 02:03:28;;;;;;;70.92;34.67;;;;;;;-0.84;71.92;100556.03;2035321;84;21030;-79
2022/03/04 02:06:34;;;;;;;73.28;34.73;;;;;;;-0.77;72.11;100553.45;2054944;84;22264;-80
2022/03/04 02:09:35;;;;;;;68.02;34.38;;;;;;;-0.77;72.08;100549.55;2038335;84;21060;-80
2022/03/04 02:12:40;;;;;;;66.97;33.78;;;;;;;-0.73;72.08;100549.30;2058007;84;21064;-80
2022/03/04 02:15:47;;;;;;;71.50;34.00;;;;;;;-0.71;72.09;100544.83;2036219;84;21555;-80
2022/03/04 02:18:52;;;;;;;68.42;33.88;;;;;;;-0.69;72.05;100544.75;2058540;84;21116;-80
2022/03/04 02:22:05;;;;;;;72.37;33.83;;;;;;;-0.66;72.10;100548.49;2061029;84;21049;-80
2022/03/04 02:25:14;;;;;;;67.32;32.42;;;;;;;-0.61;72.07;100548.25;2082421;84;21113;-80
2022/03/04 02:28:17;;;;;;;62.03;32.15;;;;;;;-0.55;72.07;100541.39;2058232;83;21067;-80
2022/03/04 02:31:25;;;;;;;62.40;29.40;;;;;;;-0.52;72.06;100543.35;2062389;84;21111;-80
2022/03/04 02:34:30;;;;;;;69.05;33.38;;;;;;;-0.50;72.08;100542.81;2061810;84;21098;-80
2022/03/04 02:37:33;;;;;;;56.28;29.75;;;;;;;-0.52;72.10;100539.91;2042156;83;21030;-80
2022/03/04 02:40:37;;;;;;;60.55;28.77;;;;;;;-0.55;72.18;100540.09;2036168;83;21081;-80
2022/03/04 02:43:42;;;;;;;61.30;28.98;;;;;;;-0.62;72.31;100542.64;2033382;83;21364;-79
2022/03/04 02:46:48;;;;;;;63.05;29.63;;;;;;;-0.66;72.31;100545.89;2061595;83;21070;-79
2022/03/04 02:49:51;;;;;;;63.28;28.90;;;;;;;-0.66;72.44;100551.09;2066049;84;21645;-79
2022/03/04 02:52:55;;;;;;;67.65;29.60;;;;;;;-0.69;72.48;100544.28;2039905;83;21648;-80
2022/03/04 02:55:59;;;;;;;58.02;29.48;;;;;;;-0.72;72.52;100551.44;2056442;84;21109;-79
2022/03/04 02:59:03;;;;;;;68.05;30.75;;;;;;;-0.77;72.59;100555.59;2023376;84;21169;-79
2022/03/04 03:02:09;;;;;;;61.58;29.42;;;;;;;-0.77;72.75;100553.45;2084238;83;21083;-79
2022/03/04 03:05:13;;;;;;;65.03;28.67;;;;;;;-0.74;72.92;100559.80;2040741;84;21140;-79
2022/03/04 03:08:18;;;;;;;60.95;29.48;;;;;;;-0.76;73.00;100559.03;2057333;84;21130;-79
2022/03/04 03:11:23;;;;;;;61.83;30.37;;;;;;;-0.72;73.05;100561.87;2080365;84;21086;-79
2022/03/04 03:14:28;;;;;;;60.17;29.12;;;;;;;-0.70;73.10;100561.33;2034793;84;21621;-79
2022/03/04 03:17:33;;;;;;;56.05;27.30;;;;;;;-0.67;73.17;100553.34;2061160;84;21110;-79
2022/03/04 03:20:40;;;;;;;60.58;29.75;;;;;;;-0.66;73.39;100561.52;2060855;84;21603;-79
2022/03/04 03:23:46;;;;;;;59.85;28.75;;;;;;;-0.66;73.29;100556.78;2065731;84;21122;-79
2022/03/04 03:26:49;;;;;;;61.95;28.57;;;;;;;-0.64;73.38;100559.69;2042732;84;21069;-79
2022/03/04 03:29:55;;;;;;;60.52;27.90;;;;;;;-0.62;73.56;100551.33;2098457;83;21072;-80
2022/03/04 03:32:58;;;;;;;62.27;30.57;;;;;;;-0.61;73.40;100550.39;2057728;83;21088;-79
2022/03/04 03:36:04;;;;;;;61.92;28.30;;;;;;;-0.58;73.49;100541.09;2074801;83;21124;-79
2022/03/04 03:39:09;;;;;;;63.38;28.87;;;;;;;-0.57;73.69;100542.77;2074451;83;21074;-79
2022/03/04 03:42:14;;;;;;;56.05;28.57;;;;;;;-0.61;73.65;100537.83;2074518;83;21065;-79
2022/03/04 03:45:21;;;;;;;59.95;27.82;;;;;;;-0.65;73.71;100546.72;2011330;85;21088;-79
2022/03/04 03:48:28;;;;;;;60.92;29.10;;;;;;;-0.69;73.92;100531.26;2040188;84;21089;-79
2022/03/04 03:51:32;;;;;;;63.98;28.50;;;;;;;-0.67;73.97;100529.88;2080249;84;21740;-79
2022/03/04 03:54:36;;;;;;;60.23;29.82;;;;;;;-0.68;74.03;100534.70;2032737;84;21123;-79
2022/03/04 03:57:40;;;;;;;59.70;29.07;;;;;;;-0.70;74.14;100533.50;2058323;84;21097;-79
2022/03/04 04:00:43;;;;;;;61.08;29.50;;;;;;;-0.69;74.24;100545.59;2067185;83;21546;-79
2022/03/04 04:03:47;;;;;;;68.92;31.95;;;;;;;-0.67;74.26;100550.73;2083432;84;21052;-79
2022/03/04 04:06:51;;;;;;;67.15;31.37;;;;;;;-0.62;74.28;100553.94;2033908;84;21050;-79
2022/03/04 04:09:56;;;;;;;66.05;30.95;;;;;;;-0.53;74.32;100556.02;2062165;84;21072;-79
2022/03/04 04:13:00;;;;;;;64.45;29.77;;;;;;;-0.54;74.09;100550.88;2092917;83;21121;-79
2022/03/04 04:16:03;;;;;;;63.85;30.92;;;;;;;-0.55;74.14;100553.95;2010010;85;21067;-79
2022/03/04 04:19:07;;;;;;;86.10;35.68;;;;;;;-0.55;74.19;100556.56;2009955;85;21058;-79
2022/03/04 04:22:11;;;;;;;104.92;40.73;;;;;;;-0.52;74.32;100561.60;2083982;84;21120;-80
2022/03/04 04:25:16;;;;;;;97.05;37.75;;;;;;;-0.49;74.39;100563.20;2081775;83;21737;-79
2022/03/04 04:28:18;;;;;;;179.10;69.42;;;;;;;-0.48;74.41;100560.96;2080881;83;21687;-79
2022/03/04 04:31:25;;;;;;;84.45;39.38;;;;;;;-0.47;74.46;100543.94;2076520;84;21072;-79
2022/03/04 04:34:30;;;;;;;75.00;36.33;;;;;;;-0.48;74.40;100559.22;2078530;84;22454;-79
2022/03/04 04:37:36;;;;;;;78.10;33.00;;;;;;;-0.49;74.44;100553.61;2049607;84;21079;-79
2022/03/04 04:40:39;;;;;;;69.07;31.60;;;;;;;-0.48;74.44;100557.05;2054416;85;21112;-79
2022/03/04 04:43:45;;;;;;;69.85;31.77;;;;;;;-0.47;74.51;100562.66;2080033;84;21113;-79
2022/03/04 04:46:50;;;;;;;82.78;35.95;;;;;;;-0.47;74.54;100556.98;2078198;84;21129;-79
2022/03/04 04:49:54;;;;;;;81.82;35.98;;;;;;;-0.40;74.54;100552.25;2087787;84;21062;-79
2022/03/04 04:52:58;;;;;;;68.42;32.38;;;;;;;-0.40;74.53;100552.72;2025511;85;21047;-79
2022/03/04 04:56:03;;;;;;;65.85;31.42;;;;;;;-0.44;74.52;100540.80;2059070;84;21037;-79
2022/03/04 04:59:10;;;;;;;64.75;31.85;;;;;;;-0.47;74.55;100550.45;2073566;84;21543;-79
2022/03/04 05:02:16;;;;;;;74.92;34.08;;;;;;;-0.50;74.55;100553.23;2070376;84;21028;-79
2022/03/04 05:05:21;;;;;;;67.22;31.20;;;;;;;-0.55;74.65;100552.66;2062314;84;21049;-79
2022/03/04 05:08:27;;;;;;;67.58;31.65;;;;;;;-0.61;74.76;100549.09;2086588;84;21145;-79
2022/03/04 05:11:33;;;;;;;70.57;31.45;;;;;;;-0.65;74.78;100548.86;2090627;84;21093;-80
2022/03/04 05:14:37;;;;;;;71.12;33.45;;;;;;;-0.65;74.91;100545.42;2062802;84;21108;-78
2022/03/04 05:17:44;;;;;;;72.67;32.67;;;;;;;-0.69;74.89;100549.97;2064614;84;21620;-79
2022/03/04 05:20:48;;;;;;;71.28;34.58;;;;;;;-0.70;74.94;100549.59;2062727;84;21120;-79
2022/03/04 05:24:00;;;;;;;71.90;35.30;;;;;;;-0.74;74.98;100555.89;2090032;84;21089;-78
2022/03/04 05:27:08;;;;;;;67.67;33.63;;;;;;;-0.77;75.00;100550.38;2060408;84;21069;-78
2022/03/04 05:30:14;;;;;;;69.85;33.10;;;;;;;-0.68;75.10;100549.03;2068237;84;21086;-78
2022/03/04 05:33:21;;;;;;;74.12;34.65;;;;;;;-0.66;75.07;100548.49;2094785;83;21602;-80
2022/03/04 05:36:26;;;;;;;72.30;33.35;;;;;;;-0.60;75.08;100559.88;2039071;83;21097;-80
2022/03/04 05:39:30;;;;;;;71.47;34.25;;;;;;;-0.56;75.13;100557.97;2040809;84;21080;-81
2022/03/04 05:42:43;;;;;;;72.10;34.65;;;;;;;-0.51;75.20;100563.73;2013245;85;21093;-77
2022/03/04 05:45:49;;;;;;;56.70;28.45;;;;;;;-0.52;75.15;100565.98;2071939;83;21035;-74
2022/03/04 05:48:49;;;;;;;79.20;37.20;;;;;;;-0.52;75.14;100565.98;2075635;83;21068;-80
2022/03/04 05:51:55;;;;;;;75.40;35.68;;;;;;;-0.50;75.23;100572.80;2097167;83;21119;-81
2022/03/04 05:55:00;;;;;;;70.20;33.13;;;;;;;-0.42;75.31;100567.16;2024156;85;21079;-86
2022/03/04 05:58:04;;;;;;;62.83;31.07;;;;;;;-0.40;75.43;100568.36;2033262;85;21087;-81
2022/03/04 06:01:08;;;;;;;58.85;30.27;;;;;;;-0.45;75.18;100567.34;2025876;84;21583;-80
2022/03/04 06:04:11;;;;;;;75.75;34.33;;;;;;;-0.39;75.21;100575.28;2058799;84;21121;-78
2022/03/04 06:07:18;;;;;;;70.57;32.78;;;;;;;-0.40;75.18;100573.11;2063758;84;21075;-80
2022/03/04 06:10:23;;;;;;;64.53;32.73;;;;;;;-0.39;75.18;100576.58;2064896;83;21156;-80
2022/03/04 06:13:33;;;;;;;66.12;31.97;;;;;;;-0.39;75.27;100581.33;2040793;83;21119;-74
2022/03/04 06:16:37;;;;;;;68.37;32.08;;;;;;;-0.37;75.25;100576.84;2090291;83;21084;-79
2022/03/04 06:19:44;;;;;;;69.47;32.80;;;;;;;-0.37;75.34;100587.75;2091016;83;21068;-79
2022/03/04 06:22:50;;;;;;;74.45;35.90;;;;;;;-0.36;75.60;100593.36;2066764;83;21057;-79
2022/03/04 06:25:55;;;;;;;82.12;34.50;;;;;;;-0.36;75.51;100599.41;2063212;83;21056;-76
2022/03/04 06:28:59;;;;;;;70.55;34.83;;;;;;;-0.34;75.47;100613.65;2029766;85;21111;-79
2022/03/04 06:32:05;;;;;;;68.07;33.35;;;;;;;-0.35;75.57;100612.81;2024448;83;21534;-78
2022/03/04 06:35:11;;;;;;;74.77;36.35;;;;;;;-0.31;75.66;100604.34;2095426;84;21083;-78
2022/03/04 06:38:22;;;;;;;79.07;36.45;;;;;;;-0.29;75.71;100611.63;2071427;84;21076;-78
2022/03/04 06:41:33;;;;;;;77.62;34.88;;;;;;;-0.29;75.85;100611.63;1999725;83;21075;-78
2022/03/04 06:44:38;;;;;;;76.00;35.43;;;;;;;-0.29;76.11;100620.30;2093226;83;21109;-78
2022/03/04 06:47:44;;;;;;;73.67;34.33;;;;;;;-0.28;76.01;100608.12;2065343;83;21587;-78
2022/03/04 06:50:54;;;;;;;74.60;35.68;;;;;;;-0.24;76.31;100613.53;2048037;84;21063;-77
2022/03/04 06:53:59;;;;;;;72.92;35.55;;;;;;;-0.20;76.22;100608.50;2024123;85;21068;-76
2022/03/04 06:57:04;;;;;;;84.97;37.90;;;;;;;-0.14;76.08;100614.70;2072311;84;21607;-77
2022/03/04 07:00:10;;;;;;;79.75;35.52;;;;;;;-0.08;76.09;100614.36;2074029;84;21054;-77
2022/03/04 07:03:16;;;;;;;80.45;37.20;;;;;;;-0.06;76.08;100614.25;2016240;85;21088;-78
2022/03/04 07:06:21;;;;;;;76.53;36.25;;;;;;;-0.02;76.07;100620.53;2038640;85;21060;-77
2022/03/04 07:09:29;;;;;;;78.55;38.55;;;;;;;0.04;76.08;100625.86;1998005;86;21107;-77
2022/03/04 07:12:40;;;;;;;78.55;35.88;;;;;;;0.08;76.08;100623.91;2002621;86;21029;-77
2022/03/04 07:15:47;;;;;;;79.55;38.02;;;;;;;0.13;76.11;100629.24;2004453;85;21079;-77
2022/03/04 07:18:52;;;;;;;78.78;38.70;;;;;;;0.22;76.12;100637.01;2026942;85;21071;-78
2022/03/04 07:21:56;;;;;;;77.87;36.77;;;;;;;0.28;76.02;100635.34;2052583;85;21124;-78
2022/03/04 07:25:01;;;;;;;76.20;35.28;;;;;;;0.33;76.01;100630.70;2025068;84;21030;-76
2022/03/04 07:28:10;;;;;;;80.75;37.75;;;;;;;0.33;75.94;100637.23;2068629;84;22684;-77
2022/03/04 07:31:15;;;;;;;82.02;38.25;;;;;;;0.37;75.96;100631.39;2062597;84;21609;-78
2022/03/04 07:34:25;;;;;;;81.17;38.42;;;;;;;0.37;75.93;100645.28;2097455;84;21578;-78
2022/03/04 07:37:28;;;;;;;84.35;37.55;;;;;;;0.42;75.95;100636.72;2065320;84;21722;-76
2022/03/04 07:40:32;;;;;;;78.40;36.53;;;;;;;0.46;75.91;100647.82;2050533;84;21038;-77
2022/03/04 07:43:40;;;;;;;78.45;35.75;;;;;;;0.52;75.98;100638.79;2073371;84;21158;-78
2022/03/04 07:46:49;;;;;;;77.72;37.90;;;;;;;0.55;75.85;100647.75;2047143;84;21060;-78
2022/03/04 07:49:49;;;;;;;75.45;38.17;;;;;;;0.58;75.90;100647.56;2025154;85;21014;-79
2022/03/04 07:52:57;;;;;;;74.55;37.50;;;;;;;0.57;75.85;100648.50;2006181;86;21145;-77
2022/03/04 07:56:08;;;;;;;79.22;36.83;;;;;;;0.54;75.82;100648.69;2043056;85;21125;-78
2022/03/04 07:59:17;;;;;;;71.80;36.25;;;;;;;0.53;75.87;100649.12;2046661;85;21072;-78
2022/03/04 08:02:21;;;;;;;74.17;35.85;;;;;;;0.55;75.83;100659.50;2056788;84;21101;-79
2022/03/04 08:05:25;;;;;;;73.52;36.88;;;;;;;0.58;75.98;100658.02;2054585;85;21064;-78
2022/03/04 08:08:31;;;;;;;84.20;39.48;;;;;;;0.63;75.91;100663.81;2029135;85;21627;-78
2022/03/04 08:11:34;;;;;;;83.47;38.67;;;;;;;0.65;75.99;100667.19;2058815;85;21359;-78
2022/03/04 08:14:39;;;;;;;81.40;38.85;;;;;;;0.65;75.95;100659.34;2056332;85;21058;-78
2022/03/04 08:17:45;;;;;;;86.30;38.90;;;;;;;0.64;75.88;100668.93;2026311;85;21053;-79
2022/03/04 08:20:51;;;;;;;77.10;37.58;;;;;;;0.69;75.96;100665.22;2017353;85;21053;-80
2022/03/04 08:23:58;;;;;;;76.17;36.58;;;;;;;0.75;75.98;100672.22;2029800;85;21177;-79
2022/03/04 08:27:05;;;;;;;74.97;37.05;;;;;;;0.79;75.94;100672.88;2040760;84;21124;-79
2022/03/04 08:30:12;;;;;;;83.92;37.78;;;;;;;0.86;76.09;100675.04;1991011;85;21137;-79
2022/03/04 08:33:20;;;;;;;82.47;39.60;;;;;;;0.93;76.03;100678.16;2007444;85;21088;-77
2022/03/04 08:36:24;;;;;;;77.62;40.38;;;;;;;1.02;76.06;100684.59;2052733;83;21072;-77
2022/03/04 08:39:32;;;;;;;81.78;38.53;;;;;;;1.13;76.04;100669.11;2072430;83;21116;-80
2022/03/04 08:42:41;;;;;;;77.32;38.58;;;;;;;1.21;76.07;100681.25;2108411;83;21139;-80
2022/03/04 08:45:48;;;;;;;82.27;38.58;;;;;;;1.34;76.02;100681.33;2104785;83;21117;-80
2022/03/04 08:49:00;;;;;;;77.62;37.28;;;;;;;1.47;75.90;100678.81;2088190;83;21128;-80
2022/03/04 08:52:06;;;;;;;76.50;38.80;;;;;;;1.55;75.66;100674.79;2071247;83;21092;-80
2022/03/04 08:55:15;;;;;;;78.07;38.60;;;;;;;1.71;75.88;100669.42;2107948;83;21142;-80
2022/03/04 08:58:22;;;;;;;87.65;43.40;;;;;;;1.92;75.68;100668.55;1999891;85;21600;-80
2022/03/04 09:01:31;;;;;;;87.25;41.53;;;;;;;2.03;75.55;100671.80;2073751;84;21738;-80
2022/03/04 09:04:33;;;;;;;85.45;40.55;;;;;;;2.18;75.44;100665.55;2081958;84;21093;-80
2022/03/04 09:07:39;;;;;;;79.58;38.10;;;;;;;2.31;75.22;100671.29;2080765;84;21083;-80
2022/03/04 09:10:44;;;;;;;72.72;37.60;;;;;;;2.36;75.04;100669.22;2023569;84;21061;-80
2022/03/04 09:13:49;;;;;;;74.05;36.83;;;;;;;2.39;74.77;100675.11;2074780;84;21058;-80
2022/03/04 09:16:53;;;;;;;70.22;34.50;;;;;;;2.36;74.50;100675.77;2062465;84;21149;-80
2022/03/04 09:20:02;;;;;;;60.78;33.08;;;;;;;2.41;74.56;100678.45;2029443;85;21100;-81
2022/03/04 09:23:12;;;;;;;69.17;35.70;;;;;;;2.53;74.70;100680.73;2044865;84;21600;-80
2022/03/04 09:26:17;;;;;;;65.42;34.53;;;;;;;2.67;74.52;100688.98;2060388;84;21102;-80
2022/03/04 09:29:27;;;;;;;67.42;35.70;;;;;;;2.68;74.13;100687.59;2042441;84;21140;-79
2022/03/04 09:32:32;;;;;;;67.72;36.15;;;;;;;2.65;73.73;100696.12;2108168;83;21010;-80
2022/03/04 09:35:41;;;;;;;70.87;34.83;;;;;;;2.64;73.88;100693.95;2048899;84;21681;-79
2022/03/04 09:38:45;;;;;;;69.67;35.17;;;;;;;2.71;73.85;100691.79;2079727;83;21041;-80
2022/03/04 09:41:53;;;;;;;67.72;33.33;;;;;;;2.78;73.82;100688.27;2058434;84;21621;-80
2022/03/04 09:45:01;;;;;;;64.55;32.23;;;;;;;2.91;73.96;100693.07;2075192;83;21111;-80
2022/03/04 09:48:08;;;;;;;56.98;31.40;;;;;;;2.95;73.68;100690.59;2049015;84;21127;-80
2022/03/04 09:51:15;;;;;;;58.83;32.23;;;;;;;2.94;73.02;100690.72;2063398;83;21030;-80
2022/03/04 09:54:21;;;;;;;61.13;32.48;;;;;;;2.82;73.11;100691.08;2051923;83;21123;-80
2022/03/04 09:57:25;;;;;;;65.57;32.42;;;;;;;2.78;73.19;100698.28;2057150;83;21041;-80
2022/03/04 10:00:34;;;;;;;63.60;32.15;;;;;;;2.69;72.95;100701.52;2070131;83;21603;-80
2022/03/04 10:03:45;;;;;;;58.92;30.90;;;;;;;2.57;72.88;100695.32;2054444;83;21023;-80
2022/03/04 10:06:49;;;;;;;55.98;30.25;;;;;;;2.49;73.18;100697.60;2062740;83;21078;-80
2022/03/04 10:09:54;;;;;;;57.93;30.82;;;;;;;2.50;73.33;100701.89;2093254;83;21556;-79
2022/03/04 10:13:02;;;;;;;55.45;29.15;;;;;;;2.47;73.19;100700.78;2105346;83;21068;-79
2022/03/04 10:16:09;;;;;;;59.70;28.07;;;;;;;2.46;73.14;100702.56;2103306;83;22220;-80
2022/03/04 10:19:20;;;;;;;53.08;27.52;;;;;;;2.54;73.36;100694.69;2069265;83;21048;-80
2022/03/04 10:22:42;;;;;;;51.95;26.80;;;;;;;2.61;73.20;100697.26;2060949;83;21043;-80
2022/03/04 10:25:50;;;;;;;51.80;28.90;;;;;;;2.69;73.12;100702.83;2025491;85;21068;-80
2022/03/04 10:28:59;;;;;;;44.25;25.43;;;;;;;2.69;72.70;100699.73;2073273;83;21076;-79
2022/03/04 10:32:23;;;;;;;51.18;26.82;;;;;;;2.65;72.58;100699.59;2059594;84;21592;-80
2022/03/04 10:35:35;;;;;;;47.88;26.17;;;;;;;2.60;72.41;100706.07;2062017;84;21134;-79
2022/03/04 10:38:36;;;;;;;44.45;24.60;;;;;;;2.51;72.47;100704.90;2075044;84;21072;-81
2022/03/04 10:41:50;;;;;;;40.80;22.93;;;;;;;2.42;72.34;100709.41;2005518;84;21085;-82
2022/03/04 10:45:08;;;;;;;42.90;23.18;;;;;;;2.37;72.60;100714.13;2076383;84;22256;-74
2022/03/04 10:48:20;;;;;;;47.33;25.35;;;;;;;2.34;72.60;100713.02;2079179;84;22428;-79
2022/03/04 10:51:37;;;;;;;48.95;27.27;;;;;;;2.30;72.63;100716.76;2080369;84;21033;-78
2022/03/04 10:54:46;;;;;;;43.92;23.10;;;;;;;2.29;72.57;100709.85;2032421;84;21120;-80
2022/03/04 10:58:00;;;;;;;38.83;23.05;;;;;;;2.27;72.21;100719.11;2038923;84;21147;-82
2022/03/04 11:01:18;;;;;;;42.75;22.32;;;;;;;2.18;72.29;100719.23;2080016;84;21103;-82
2022/03/04 11:04:26;;;;;;;37.25;20.68;;;;;;;2.21;72.57;100711.17;2066054;83;21611;-83
2022/03/04 11:07:42;;;;;;;35.00;19.62;;;;;;;2.26;72.49;100712.20;2096246;82;21077;-83
2022/03/04 11:10:46;;;;;;;36.42;20.68;;;;;;;2.22;72.31;100718.55;2044242;84;21439;-83
2022/03/04 11:13:51;;;;;;;38.35;21.17;;;;;;;2.20;72.44;100716.05;1977482;84;21089;-82
2022/03/04 11:17:00;;;;;;;36.73;20.02;;;;;;;2.35;72.59;100718.62;2075406;84;21599;-83
2022/03/04 11:20:09;;;;;;;32.13;18.42;;;;;;;2.52;72.50;100712.28;2045795;85;21066;-83
2022/03/04 11:23:28;;;;;;;43.05;21.55;;;;;;;2.62;72.03;100714.68;2019129;85;21095;-83
2022/03/04 11:26:34;;;;;;;35.38;19.42;;;;;;;2.69;71.95;100709.39;2061014;83;21073;-83
2022/03/04 11:29:44;;;;;;;35.28;19.87;;;;;;;2.79;71.77;100712.22;2033210;83;21112;-83
2022/03/04 11:32:48;;;;;;;34.53;19.70;;;;;;;2.82;71.67;100716.81;2062656;84;21057;-83
2022/03/04 11:36:07;;;;;;;34.92;19.40;;;;;;;2.92;71.79;100713.09;2042865;85;21131;-83
2022/03/04 11:39:14;;;;;;;38.73;21.42;;;;;;;3.01;71.57;100708.53;2046089;85;21102;-83
2022/03/04 11:42:21;;;;;;;42.70;20.85;;;;;;;3.02;71.38;100708.91;2038002;85;21080;-82
2022/03/04 11:45:33;;;;;;;34.25;18.80;;;;;;;3.03;71.34;100709.27;2021525;85;21058;-83
2022/03/04 11:48:39;;;;;;;34.75;19.30;;;;;;;3.02;71.21;100707.60;2019867;85;21120;-83
2022/03/04 11:51:49;;;;;;;35.05;19.27;;;;;;;3.05;71.31;100709.18;2020658;85;21056;-82
2022/03/04 11:55:01;;;;;;;32.40;17.62;;;;;;;3.10;71.20;100704.47;2045243;85;21126;-82
2022/03/04 11:58:06;;;;;;;29.02;16.48;;;;;;;3.13;71.15;100702.47;2021410;85;21853;-82
2022/03/04 12:01:20;;;;;;;30.52;16.02;;;;;;;3.18;70.95;100703.45;1991776;85;21100;-83
2022/03/04 12:04:27;;;;;;;26.33;15.55;;;;;;;3.14;70.60;100702.83;1996402;85;21128;-82
2022/03/04 12:07:41;;;;;;;28.52;15.83;;;;;;;3.11;70.57;100701.73;2018912;85;21072;-82
2022/03/04 12:15:38;;;;;;;30.30;16.85;;;;;;;3.10;70.48;100705.30;2042814;84;21482;-78
2022/03/04 12:18:48;;;;;;;25.08;13.13;;;;;;;3.07;70.47;100712.52;2043962;85;21446;-76
2022/03/04 12:22:00;;;;;;;25.12;13.95;;;;;;;3.00;70.21;100712.10;2046220;85;21128;-76
2022/03/04 12:25:06;;;;;;;23.47;14.20;;;;;;;2.94;70.08;100712.52;2023615;85;21124;-76
2022/03/04 12:28:19;;;;;;;28.77;15.35;;;;;;;2.89;70.04;100712.81;2040006;85;21427;-76
2022/03/04 12:31:28;;;;;;;28.35;14.28;;;;;;;2.89;70.19;100714.13;2012862;84;21083;-76
2022/03/04 12:34:32;;;;;;;21.45;13.35;;;;;;;2.88;70.17;100705.08;2085247;84;21073;-76
2022/03/04 12:37:42;;;;;;;24.07;14.00;;;;;;;2.90;70.14;100717.59;2041832;85;21120;-76
2022/03/04 12:40:49;;;;;;;29.10;15.10;;;;;;;2.91;70.16;100710.11;2050286;84;21152;-76
2022/03/04 12:44:03;;;;;;;24.57;14.70;;;;;;;2.94;70.31;100716.93;2033737;84;21531;-77
2022/03/04 12:47:08;;;;;;;18.60;10.55;;;;;;;2.95;70.08;100712.88;2036498;84;21116;-76
2022/03/04 12:50:22;;;;;;;20.12;11.12;;;;;;;2.91;69.85;100718.81;2060707;84;21062;-76
2022/03/04 12:53:38;;;;;;;17.12;10.98;;;;;;;2.88;69.76;100717.70;2040144;84;21116;-75
2022/03/04 12:56:46;;;;;;;19.75;12.35;;;;;;;2.88;69.79;100716.88;2070807;84;21110;-79
2022/03/04 12:59:58;;;;;;;21.87;10.82;;;;;;;2.92;70.06;100713.09;2042095;84;21103;-79
2022/03/04 13:03:28;;;;;;;17.45;9.60;;;;;;;2.96;69.61;100717.20;2091250;83;21715;-80
2022/03/04 13:06:35;;;;;;;21.82;12.23;;;;;;;2.98;68.92;100718.39;2060069;84;21069;-80
2022/03/04 13:09:46;;;;;;;20.32;11.28;;;;;;;2.96;69.39;100718.51;2039062;85;21082;-80
2022/03/04 13:13:03;;;;;;;18.15;10.98;;;;;;;2.98;69.05;100713.98;2058466;84;21073;-80
2022/03/04 13:16:23;;;;;;;21.17;12.78;;;;;;;2.99;69.25;100717.47;2079872;84;22199;-81
2022/03/04 13:19:35;;;;;;;24.40;13.28;;;;;;;2.96;69.23;100719.82;2085439;83;21057;-80
2022/03/04 13:22:44;;;;;;;25.50;14.28;;;;;;;2.91;68.99;100712.73;2079425;83;21109;-80
2022/03/04 13:25:52;;;;;;;20.82;13.72;;;;;;;2.85;69.23;100715.30;2080696;83;21540;-80
2022/03/04 13:29:08;;;;;;;20.43;12.90;;;;;;;2.82;69.40;100716.81;2052615;84;21015;-80
2022/03/04 13:32:28;;;;;;;23.32;13.25;;;;;;;2.79;69.48;100727.94;2037161;85;21568;-81
2022/03/04 13:35:36;;;;;;;26.07;15.83;;;;;;;2.77;69.70;100725.92;2079881;84;21045;-80
2022/03/04 13:38:48;;;;;;;24.43;15.63;;;;;;;2.79;69.78;100731.87;2099620;83;21009;-80
2022/03/04 13:42:18;;;;;;;26.90;15.88;;;;;;;2.83;69.74;100738.13;2095219;83;21080;-81
2022/03/04 13:45:44;;;;;;;24.47;15.72;;;;;;;2.79;69.68;100737.12;2081005;84;21035;-81
2022/03/04 13:49:05;;;;;;;28.95;16.82;;;;;;;2.76;69.71;100731.64;2100179;82;21097;-81
2022/03/04 13:52:14;;;;;;;26.70;16.82;;;;;;;2.73;69.77;100736.22;2080430;84;21103;-81
2022/03/04 13:55:35;;;;;;;28.38;16.93;;;;;;;2.71;69.87;100736.34;2078341;83;21165;-81
2022/03/04 13:58:48;;;;;;;22.87;15.08;;;;;;;2.73;69.96;100736.22;2088023;83;21852;-81
2022/03/04 14:01:55;;;;;;;24.95;13.90;;;;;;;2.72;69.93;100733.23;2086709;83;21064;-82
2022/03/04 14:05:00;;;;;;;25.60;12.63;;;;;;;2.77;69.89;100733.78;2112347;82;21068;-82
2022/03/04 14:08:18;;;;;;;23.62;13.65;;;;;;;2.79;69.93;100737.98;2108000;82;21037;-82
2022/03/04 14:11:21;;;;;;;22.50;14.03;;;;;;;2.81;69.99;100732.14;2072175;83;21095;-81
2022/03/04 14:14:26;;;;;;;21.75;13.30;;;;;;;2.79;69.93;100733.19;2048238;84;21407;-80
2022/03/04 14:17:34;;;;;;;22.10;12.90;;;;;;;2.76;69.82;100734.70;2043430;84;21407;-77
2022/03/04 14:20:41;;;;;;;22.17;13.70;;;;;;;2.73;69.95;100721.80;2044167;84;21050;-78